Time;durP1;ratioP1;P1;durP2;ratioP2;P2;SDS_P1;SDS_P2;PMS_P1;PMS_P2;Temp;Humidity;BMP_temperature;BMP_pressure;BME280_temperature;BME280_humidity;BME280_pressure;Samples;Min_cycle;Max_cycle;Signal;HPM_P1;HPM_P2
2021/12/02 00:04:18;;;;;;;1.10;0.32;;;;;;;7.22;77.12;98374.06;10278561;28;20046;-64
2021/12/02 00:09:21;;;;;;;0.85;0.43;;;;;;;7.11;76.82;98364.53;10274636;28;20078;-64
2021/12/02 00:14:25;;;;;;;1.38;0.50;;;;;;;7.21;76.95;98369.78;10272003;28;20085;-64
2021/12/02 00:24:54;;;;;;;0.82;0.30;;;;;;;7.19;76.42;98374.38;10280750;28;20066;-64
2021/12/02 00:29:57;;;;;;;1.52;1.20;;;;;;;7.29;77.02;98383.09;10267433;28;20548;-64
2021/12/02 00:34:59;;;;;;;1.13;0.30;;;;;;;7.36;75.75;98381.53;10285390;28;20102;-65
2021/12/02 00:40:01;;;;;;;2.08;0.55;;;;;;;7.37;76.24;98377.91;10278490;28;20105;-64
2021/12/02 00:45:03;;;;;;;0.32;0.10;;;;;;;7.33;75.73;98384.47;10278770;28;20138;-64
2021/12/02 00:50:05;;;;;;;3.95;0.70;;;;;;;7.35;75.60;98381.66;10279644;28;20709;-65
2021/12/02 00:55:08;;;;;;;2.70;1.02;;;;;;;7.33;76.99;98381.81;10281574;28;20039;-66
2021/12/02 01:00:10;;;;;;;4.25;2.00;;;;;;;7.32;77.69;98398.66;10288912;28;20070;-64
2021/12/02 01:05:11;;;;;;;2.65;1.50;;;;;;;7.25;77.82;98393.16;10267351;28;20074;-64
2021/12/02 01:10:13;;;;;;;2.67;1.55;;;;;;;7.03;78.62;98386.44;10266665;28;20051;-64
2021/12/02 01:15:16;;;;;;;1.98;1.38;;;;;;;7.03;79.09;98394.38;10260514;28;20109;-64
2021/12/02 01:20:18;;;;;;;2.97;1.02;;;;;;;7.05;79.18;98389.75;10265783;28;20467;-64
2021/12/02 01:25:20;;;;;;;2.50;1.38;;;;;;;7.06;79.37;98393.25;10267700;28;20051;-63
2021/12/02 01:30:26;;;;;;;3.53;1.30;;;;;;;7.05;78.98;98395.03;10273428;28;20153;-64
2021/12/02 01:35:28;;;;;;;3.08;1.52;;;;;;;6.95;79.19;98402.22;10278881;28;20093;-64
2021/12/02 01:40:30;;;;;;;2.63;0.90;;;;;;;6.98;78.20;98401.94;10276586;28;20051;-64
2021/12/02 01:45:33;;;;;;;3.13;1.00;;;;;;;7.00;78.62;98407.88;10274517;28;20098;-65
2021/12/02 01:50:35;;;;;;;2.15;0.63;;;;;;;7.12;78.18;98405.06;10245674;23;20059;-57
2021/12/02 01:55:43;;;;;;;1.52;0.60;;;;;;;7.07;77.96;98414.28;10223329;28;20051;-57
2021/12/02 02:00:44;;;;;;;1.98;0.70;;;;;;;6.99;78.05;98408.84;10219112;28;20066;-57
2021/12/02 02:05:50;;;;;;;1.50;0.50;;;;;;;7.00;77.34;98423.75;10186055;28;20051;-58
2021/12/02 02:10:52;;;;;;;2.35;0.50;;;;;;;7.00;76.54;98417.66;10181809;28;20047;-57
2021/12/02 02:15:54;;;;;;;1.88;0.82;;;;;;;6.99;77.03;98410.69;10186418;28;20075;-57
2021/12/02 02:21:08;;;;;;;2.40;1.40;;;;;;;7.07;76.23;98402.84;10184975;28;20103;-57
2021/12/02 02:26:09;;;;;;;1.48;1.00;;;;;;;7.10;76.35;98404.34;10182715;28;20107;-57
2021/12/02 02:31:11;;;;;;;2.35;0.65;;;;;;;7.06;76.04;98402.00;10181903;28;20071;-57
2021/12/02 02:36:13;;;;;;;1.88;0.25;;;;;;;7.06;75.68;98404.66;10177049;28;20094;-57
2021/12/02 02:41:19;;;;;;;2.03;0.50;;;;;;;6.99;75.25;98400.91;10187759;28;20046;-57
2021/12/02 02:46:23;;;;;;;3.63;0.50;;;;;;;6.90;75.64;98402.66;10177182;28;20085;-57
2021/12/02 02:51:29;;;;;;;0.73;0.30;;;;;;;6.95;76.22;98415.44;10183378;28;20062;-57
2021/12/02 02:56:34;;;;;;;1.25;0.40;;;;;;;6.90;76.98;98415.03;10179065;28;20067;-57
2021/12/02 03:01:46;;;;;;;2.28;0.90;;;;;;;6.81;77.41;98419.38;10181231;28;20471;-58
2021/12/02 03:17:12;;;;;;;0.88;0.30;;;;;;;6.80;77.53;98390.44;10180291;28;20040;-57
2021/12/02 03:22:15;;;;;;;1.70;0.47;;;;;;;6.68;78.25;98393.25;10187463;28;20130;-60
2021/12/02 03:27:17;;;;;;;2.95;0.65;;;;;;;6.86;77.98;98405.72;10174940;28;20098;-58
2021/12/02 03:32:19;;;;;;;1.65;0.50;;;;;;;6.84;77.35;98395.28;10186599;28;20158;-58
2021/12/02 03:37:20;;;;;;;2.28;0.40;;;;;;;6.74;76.03;98399.78;10177269;28;20238;-58
2021/12/02 03:42:22;;;;;;;3.58;0.90;;;;;;;6.80;76.51;98414.22;10194756;28;20107;-58
2021/12/02 03:47:23;;;;;;;5.18;0.73;;;;;;;6.67;75.59;98398.69;10183550;28;20289;-64
2021/12/02 03:52:25;;;;;;;1.33;0.50;;;;;;;6.64;76.04;98397.16;10184465;28;20513;-58
2021/12/02 03:57:29;;;;;;;4.32;0.80;;;;;;;6.61;75.80;98401.91;10182780;28;20138;-58
2021/12/02 04:02:30;;;;;;;1.60;0.80;;;;;;;6.66;75.81;98408.41;10191901;28;20071;-58
2021/12/02 04:07:32;;;;;;;2.88;1.17;;;;;;;6.62;75.31;98391.19;10187442;28;20051;-58
2021/12/02 04:12:50;;;;;;;2.65;0.55;;;;;;;6.55;75.65;98392.75;10193796;28;20218;-59
2021/12/02 04:17:51;;;;;;;4.63;1.02;;;;;;;6.54;75.93;98375.19;10191975;28;20067;-56
2021/12/02 04:22:56;;;;;;;3.10;0.70;;;;;;;6.53;76.35;98394.69;10234935;28;20158;-56
2021/12/02 04:27:57;;;;;;;2.75;0.68;;;;;;;6.49;77.12;98398.59;10264152;28;20043;-58
2021/12/02 04:32:59;;;;;;;5.47;0.85;;;;;;;6.45;77.12;98390.09;10274524;28;20455;-58
2021/12/02 04:38:00;;;;;;;2.13;0.50;;;;;;;6.37;77.37;98385.53;10263874;28;20210;-58
2021/12/02 04:43:03;;;;;;;3.88;0.85;;;;;;;6.36;77.29;98399.75;10263733;28;20070;-58
2021/12/02 04:48:06;;;;;;;3.97;0.73;;;;;;;6.22;78.14;98404.63;10263275;28;20141;-59
2021/12/02 04:53:07;;;;;;;4.35;0.85;;;;;;;6.28;78.04;98401.44;10270159;28;20059;-58
2021/12/02 04:58:09;;;;;;;4.95;0.77;;;;;;;6.28;78.44;98386.41;10259398;28;20118;-58
2021/12/02 05:03:11;;;;;;;2.55;0.93;;;;;;;6.17;78.23;98405.03;10268905;28;20138;-59
2021/12/02 05:08:13;;;;;;;3.97;0.93;;;;;;;6.25;78.07;98401.72;10265660;28;20056;-59
2021/12/02 05:13:14;;;;;;;2.33;0.60;;;;;;;6.18;77.56;98406.72;10268788;28;20269;-59
2021/12/02 05:18:16;;;;;;;3.25;0.93;;;;;;;6.12;77.05;98413.38;10272953;28;20047;-59
2021/12/02 05:23:18;;;;;;;4.57;0.88;;;;;;;6.09;77.77;98418.13;10265011;28;20050;-59
2021/12/02 05:28:20;;;;;;;1.77;0.68;;;;;;;6.00;78.14;98410.09;10268474;28;20073;-59
2021/12/02 05:33:21;;;;;;;3.08;0.68;;;;;;;5.92;79.12;98412.53;10264486;28;20500;-58
2021/12/02 05:38:23;;;;;;;3.47;1.08;;;;;;;5.89;78.87;98412.81;10269715;28;20043;-58
2021/12/02 05:43:25;;;;;;;4.82;0.90;;;;;;;5.85;79.18;98411.41;10259290;28;20501;-59
2021/12/02 05:48:26;;;;;;;2.55;0.80;;;;;;;5.73;80.00;98409.88;10257924;28;20078;-59
2021/12/02 05:53:28;;;;;;;2.47;0.68;;;;;;;5.76;80.52;98399.88;10263965;28;20205;-58
2021/12/02 05:58:29;;;;;;;2.83;0.80;;;;;;;5.70;79.08;98391.69;10259466;28;20126;-59
2021/12/02 06:03:34;;;;;;;2.13;0.52;;;;;;;5.64;79.51;98407.13;10258592;28;20071;-59
2021/12/02 06:08:37;;;;;;;1.80;0.73;;;;;;;5.62;79.37;98411.69;10259990;28;20042;-59
2021/12/02 06:13:38;;;;;;;4.05;1.38;;;;;;;5.50;80.08;98412.78;10271608;28;20054;-59
2021/12/02 06:18:40;;;;;;;3.67;1.20;;;;;;;5.53;79.04;98412.50;10256516;28;20505;-59
2021/12/02 06:23:42;;;;;;;1.90;0.85;;;;;;;5.72;79.57;98430.19;10258661;28;20141;-58
2021/12/02 06:28:43;;;;;;;4.45;1.80;;;;;;;5.52;79.48;98431.13;10263642;28;20051;-58
2021/12/02 06:33:51;;;;;;;2.22;1.35;;;;;;;5.66;80.16;98434.19;10409685;27;20430;-59
2021/12/02 06:38:53;;;;;;;2.42;1.38;;;;;;;5.50;80.01;98404.84;10358240;28;20134;-59
2021/12/02 06:43:54;;;;;;;3.58;1.25;;;;;;;5.79;79.75;98448.94;10340011;28;20078;-59
2021/12/02 06:48:56;;;;;;;4.18;1.55;;;;;;;5.85;79.89;98443.09;10429944;28;20057;-60
2021/12/02 06:53:58;;;;;;;2.22;1.60;;;;;;;5.79;80.08;98438.38;10425998;28;20054;-59
2021/12/02 06:59:17;;;;;;;3.80;1.35;;;;;;;5.80;81.36;98459.34;10432185;28;20494;-59
2021/12/02 07:04:19;;;;;;;5.13;1.55;;;;;;;5.81;81.80;98453.13;10431314;28;20135;-59
2021/12/02 07:09:20;;;;;;;4.35;1.40;;;;;;;5.69;81.39;98453.38;10433184;28;20037;-58
2021/12/02 07:14:24;;;;;;;2.83;1.25;;;;;;;5.58;81.27;98457.78;10429749;28;20473;-59
2021/12/02 07:19:25;;;;;;;2.03;0.70;;;;;;;5.67;81.83;98450.88;10419326;28;20049;-60
2021/12/02 07:24:27;;;;;;;2.10;0.90;;;;;;;5.59;81.21;98463.91;10417987;28;20052;-59
2021/12/02 07:29:44;;;;;;;2.45;0.82;;;;;;;5.63;81.54;98466.16;10421424;28;20052;-59
2021/12/02 07:34:45;;;;;;;1.70;0.98;;;;;;;5.64;81.70;98465.19;10429745;28;20088;-62
2021/12/02 07:39:47;;;;;;;1.75;1.08;;;;;;;5.74;82.02;98472.28;10429106;28;20069;-59
2021/12/02 07:45:05;;;;;;;4.97;1.52;;;;;;;5.83;81.72;98476.75;10408117;28;20090;-59
2021/12/02 07:50:11;;;;;;;3.38;1.92;;;;;;;5.84;80.56;98483.72;10403382;28;20350;-59
2021/12/02 07:55:14;;;;;;;4.47;0.90;;;;;;;5.70;80.46;98489.38;10395144;28;20049;-59
2021/12/02 08:00:19;;;;;;;2.47;1.20;;;;;;;5.81;81.14;98497.16;10372651;28;20049;-63
2021/12/02 08:05:22;;;;;;;3.13;1.10;;;;;;;6.19;81.17;98500.88;10364382;28;20481;-62
2021/12/02 08:10:24;;;;;;;3.08;1.25;;;;;;;6.35;78.37;98522.28;10364288;28;20093;-58
2021/12/02 08:15:27;;;;;;;2.33;1.35;;;;;;;6.10;78.66;98522.81;10362025;28;20511;-61
2021/12/02 08:20:29;;;;;;;1.83;1.20;;;;;;;5.98;78.29;98517.66;10360932;28;20336;-59
2021/12/02 08:25:32;;;;;;;2.58;1.15;;;;;;;5.86;78.51;98510.81;10363226;28;20037;-59
2021/12/02 08:30:35;;;;;;;3.15;0.85;;;;;;;6.01;78.73;98527.94;10363013;28;20049;-59
2021/12/02 08:35:37;;;;;;;3.88;1.15;;;;;;;5.99;78.88;98529.91;10364100;28;20107;-59
2021/12/02 08:40:40;;;;;;;2.45;1.02;;;;;;;5.81;78.17;98534.97;10362331;28;20139;-57
2021/12/02 08:45:43;;;;;;;2.50;1.55;;;;;;;5.84;78.58;98547.09;10362602;28;20132;-58
2021/12/02 08:50:47;;;;;;;3.08;1.45;;;;;;;5.84;78.14;98544.44;10360971;28;20068;-57
2021/12/02 08:55:48;;;;;;;2.40;1.17;;;;;;;5.92;78.20;98544.59;10360944;28;20047;-58
2021/12/02 09:00:50;;;;;;;3.38;1.25;;;;;;;6.08;78.11;98553.81;10361416;28;20600;-58
2021/12/02 09:05:51;;;;;;;3.22;1.92;;;;;;;6.16;78.59;98562.72;10360876;28;20557;-58
2021/12/02 09:10:53;;;;;;;3.15;1.50;;;;;;;6.34;77.46;98565.53;10362593;28;20539;-58
2021/12/02 09:15:54;;;;;;;3.03;1.40;;;;;;;6.43;76.15;98555.13;10363589;28;20132;-58
2021/12/02 09:20:58;;;;;;;4.88;1.48;;;;;;;6.36;74.57;98546.91;10365349;28;20068;-63
2021/12/02 09:25:59;;;;;;;2.63;1.25;;;;;;;6.49;75.67;98546.63;10361692;28;20161;-58
2021/12/02 09:31:01;;;;;;;4.50;1.33;;;;;;;6.70;74.02;98571.09;10361760;28;20064;-58
2021/12/02 09:36:02;;;;;;;3.10;1.52;;;;;;;6.73;74.08;98581.41;10367675;28;20049;-58
2021/12/02 09:41:04;;;;;;;1.95;1.08;;;;;;;6.67;74.10;98589.91;10374163;28;20107;-58
2021/12/02 09:46:06;;;;;;;3.40;1.30;;;;;;;6.75;73.61;98598.94;10372878;28;20543;-56
2021/12/02 09:51:11;;;;;;;2.60;1.90;;;;;;;6.71;74.00;98596.59;10366525;28;20134;-57
2021/12/02 09:56:34;;;;;;;3.90;1.83;;;;;;;6.61;74.04;98603.69;10364082;28;20388;-57
2021/12/02 10:01:51;;;;;;;2.40;1.40;;;;;;;6.46;75.90;98610.34;10362774;28;20255;-57
2021/12/02 10:07:21;;;;;;;1.63;1.52;;;;;;;6.48;75.37;98596.00;10364830;28;20128;-57
2021/12/02 10:12:24;;;;;;;2.95;1.73;;;;;;;6.52;75.49;98588.66;10364913;28;20045;-57
2021/12/02 10:17:51;;;;;;;2.53;1.70;;;;;;;7.02;73.84;98601.69;10364189;28;20057;-57
2021/12/02 10:23:21;;;;;;;2.67;1.45;;;;;;;6.89;73.08;98580.00;10361738;28;20053;-57
2021/12/02 10:28:23;;;;;;;2.03;1.65;;;;;;;6.67;73.36;98587.25;10360700;28;20053;-57
2021/12/02 10:33:32;;;;;;;2.92;1.20;;;;;;;6.78;73.25;98585.44;10360554;28;20110;-57
2021/12/02 10:38:36;;;;;;;4.85;1.77;;;;;;;6.80;73.40;98588.78;10362069;28;20132;-57
2021/12/02 10:44:20;;;;;;;2.50;1.35;;;;;;;6.76;73.02;98593.53;10358698;28;20212;-57
2021/12/02 10:49:22;;;;;;;4.93;1.60;;;;;;;11.59;58.80;98587.50;10354096;28;20084;-57
2021/12/02 10:54:31;;;;;;;2.00;1.05;;;;;;;13.90;48.83;98588.53;10361661;28;20188;-57
2021/12/02 10:59:39;;;;;;;;;;;;;;;12.23;50.68;98591.91;10355400;28;20053;-58
2021/12/02 11:04:48;;;;;;;2.10;1.25;;;;;;;10.24;55.16;98595.75;10356425;28;20043;-58
2021/12/02 11:09:52;;;;;;;1.83;1.00;;;;;;;9.47;58.65;98590.47;10361802;28;20922;-57
2021/12/02 11:15:01;;;;;;;1.88;1.45;;;;;;;8.65;61.36;98581.91;10357084;28;20514;-57
2021/12/02 11:20:07;;;;;;;2.92;0.93;;;;;;;8.26;62.95;98603.34;10358050;28;20446;-58
2021/12/02 11:25:10;;;;;;;2.83;1.02;;;;;;;8.00;63.62;98595.25;10367395;28;20049;-58
2021/12/02 11:30:30;;;;;;;4.10;1.33;;;;;;;7.99;64.54;98605.03;10364417;28;20045;-58
2021/12/02 11:35:45;;;;;;;1.90;1.20;;;;;;;9.23;60.42;98603.56;10362609;28;20049;-57
2021/12/02 11:41:06;;;;;;;1.30;0.98;;;;;;;9.68;58.94;98607.81;10365865;28;20195;-57
2021/12/02 11:46:10;;;;;;;2.33;1.50;;;;;;;10.67;56.97;98598.38;10361048;28;20077;-58
2021/12/02 11:51:17;;;;;;;2.40;1.40;;;;;;;15.94;43.13;98581.97;10356751;28;20140;-58
2021/12/02 11:56:21;;;;;;;2.08;0.75;;;;;;;19.96;35.23;98579.75;10362872;28;20076;-58
2021/12/02 12:01:27;;;;;;;1.20;0.65;;;;;;;23.28;28.29;98581.34;10360229;28;20073;-59
2021/12/02 12:06:32;;;;;;;3.10;1.33;;;;;;;18.71;34.15;98576.03;10357071;28;20344;-58
2021/12/02 12:11:35;;;;;;;1.85;0.75;;;;;;;16.71;37.55;98588.00;10364415;28;21441;-58
2021/12/02 12:16:38;;;;;;;1.37;0.60;;;;;;;13.71;43.42;98596.09;10363781;28;20084;-58
2021/12/02 12:21:44;;;;;;;0.98;0.50;;;;;;;11.50;46.93;98615.16;10363374;28;20465;-58
2021/12/02 12:26:50;;;;;;;1.63;1.30;;;;;;;9.30;54.18;98612.59;10361690;28;20071;-57
2021/12/02 12:31:57;;;;;;;1.10;0.50;;;;;;;9.27;55.52;98631.47;10358984;28;21522;-58
2021/12/02 12:37:01;;;;;;;1.27;0.50;;;;;;;8.63;59.80;98644.84;10362651;28;20483;-58
2021/12/02 12:42:12;;;;;;;1.80;0.80;;;;;;;8.43;62.06;98655.56;10358703;28;20114;-57
2021/12/02 12:47:13;;;;;;;1.08;0.60;;;;;;;7.51;65.24;98653.72;10362633;28;20514;-57
2021/12/02 12:52:18;;;;;;;0.82;0.50;;;;;;;7.40;64.93;98646.75;10357387;28;20128;-57
2021/12/02 12:57:19;;;;;;;;;;;;;;;7.75;63.63;98656.72;10362213;28;20928;-57
2021/12/02 13:02:24;;;;;;;1.85;0.60;;;;;;;9.07;59.30;98658.22;10364125;28;20122;-58
2021/12/02 13:07:26;;;;;;;1.05;0.70;;;;;;;9.07;57.55;98658.22;10357836;28;20587;-57
2021/12/02 13:12:37;;;;;;;1.38;0.70;;;;;;;9.11;57.19;98672.84;10361503;28;20371;-58
2021/12/02 13:17:43;;;;;;;1.13;0.70;;;;;;;10.86;50.46;98670.94;10357928;28;20096;-58
2021/12/02 13:23:04;;;;;;;1.17;0.60;;;;;;;9.87;52.34;98675.84;10357509;28;20084;-58
2021/12/02 13:28:21;;;;;;;1.67;1.00;;;;;;;8.27;56.84;98676.56;10355380;28;20428;-58
2021/12/02 13:33:35;;;;;;;2.47;1.20;;;;;;;8.54;57.33;98680.22;10356804;28;20080;-58
2021/12/02 13:38:38;;;;;;;0.93;0.82;;;;;;;8.77;55.01;98667.38;10356304;28;20133;-58
2021/12/02 13:44:11;;;;;;;2.85;1.67;;;;;;;7.92;56.82;98694.03;10357009;28;20569;-57
2021/12/02 13:49:18;;;;;;;1.90;1.13;;;;;;;7.49;60.55;98682.13;10351298;28;20636;-58
2021/12/02 13:54:20;;;;;;;1.67;1.30;;;;;;;6.92;59.71;98708.50;10357869;28;20072;-57
2021/12/02 13:59:24;;;;;;;3.05;1.77;;;;;;;6.12;60.08;98687.31;10358236;28;20049;-58
2021/12/02 14:04:26;;;;;;;1.93;1.23;;;;;;;6.56;60.04;98719.59;10359703;28;20126;-58
2021/12/02 14:09:27;;;;;;;2.05;1.20;;;;;;;6.36;59.92;98726.59;10358976;28;21476;-57
2021/12/02 14:14:29;;;;;;;2.33;1.48;;;;;;;6.71;60.05;98736.75;10360987;28;20184;-60
2021/12/02 14:20:23;;;;;;;2.22;1.45;;;;;;;6.37;60.37;98738.88;10372299;28;20049;-57
2021/12/02 14:25:27;;;;;;;2.80;1.23;;;;;;;6.16;58.77;98746.84;10345523;28;20130;-57
2021/12/02 14:30:40;;;;;;;1.42;1.27;;;;;;;5.95;60.75;98760.88;10350069;28;20056;-63
2021/12/02 14:35:58;;;;;;;2.38;1.52;;;;;;;5.70;61.13;98766.56;10352569;28;20049;-57
2021/12/02 14:41:14;;;;;;;1.58;1.00;;;;;;;5.50;62.19;98782.28;10354337;28;20152;-57
2021/12/02 14:46:19;;;;;;;2.35;1.35;;;;;;;5.59;63.17;98775.41;10355037;28;20503;-57
2021/12/02 14:51:20;;;;;;;1.95;1.85;;;;;;;5.68;63.34;98779.91;10355745;28;20318;-57
2021/12/02 14:56:28;;;;;;;2.72;1.30;;;;;;;5.27;63.96;98782.38;10361582;28;20136;-57
2021/12/02 15:01:30;;;;;;;1.88;1.67;;;;;;;5.28;64.17;98788.47;10364858;28;20736;-58
2021/12/02 15:06:36;;;;;;;5.95;3.63;;;;;;;5.17;64.47;98801.72;10363092;28;20049;-57
2021/12/02 15:11:37;;;;;;;3.67;2.10;;;;;;;5.35;63.96;98805.50;10358120;28;20447;-57
2021/12/02 15:16:52;;;;;;;2.55;2.35;;;;;;;5.09;65.52;98797.06;10357392;28;20050;-57
2021/12/02 15:21:54;;;;;;;2.97;1.98;;;;;;;4.88;65.42;98816.28;10360653;28;20324;-57
2021/12/02 15:27:12;;;;;;;3.05;2.20;;;;;;;4.64;66.73;98837.53;10361321;28;20596;-57
2021/12/02 15:32:15;;;;;;;5.68;3.00;;;;;;;4.73;67.59;98854.44;10355838;28;20637;-57
2021/12/02 15:37:16;;;;;;;6.35;3.40;;;;;;;5.00;67.08;98863.72;10353688;28;20207;-57
2021/12/02 15:42:17;;;;;;;4.13;3.10;;;;;;;5.30;67.21;98871.84;10359622;28;20416;-57
2021/12/02 15:47:19;;;;;;;3.72;2.90;;;;;;;5.34;66.11;98882.13;10362452;28;20132;-57
2021/12/02 15:52:20;;;;;;;3.88;2.35;;;;;;;4.97;66.58;98893.84;10377382;28;20122;-57
2021/12/02 15:57:22;;;;;;;4.72;3.10;;;;;;;4.78;68.26;98892.63;10362964;28;20057;-57
2021/12/02 16:02:28;;;;;;;4.80;2.20;;;;;;;4.50;69.82;98920.28;10355736;28;20095;-58
2021/12/02 16:07:39;;;;;;;3.92;2.10;;;;;;;4.73;70.24;98942.25;10361298;28;20049;-57
2021/12/02 16:12:40;;;;;;;2.25;1.90;;;;;;;4.98;69.79;98944.78;10393257;22;20141;-58
2021/12/02 16:17:43;;;;;;;1.80;1.45;;;;;;;4.83;68.32;98950.25;10357939;28;20413;-59
2021/12/02 16:22:45;;;;;;;3.75;1.77;;;;;;;4.84;68.93;98954.59;10332222;28;20049;-59
2021/12/02 16:27:46;;;;;;;3.75;2.00;;;;;;;4.55;68.51;98964.75;10322587;28;20517;-59
2021/12/02 16:32:48;;;;;;;1.90;1.70;;;;;;;4.62;68.95;98973.03;10319841;28;20206;-59
2021/12/02 16:37:49;;;;;;;2.30;2.08;;;;;;;4.61;68.04;98985.38;10322771;28;20321;-59
2021/12/02 16:42:54;;;;;;;3.40;2.33;;;;;;;4.91;68.23;98998.00;10327539;28;20318;-58
2021/12/02 16:47:56;;;;;;;;;;;;;;;5.08;67.85;99009.03;10323106;28;20062;-59
2021/12/02 16:52:58;;;;;;;2.47;2.28;;;;;;;5.36;67.88;99012.16;10323874;28;20335;-58
2021/12/02 16:58:00;;;;;;;4.53;2.42;;;;;;;5.36;66.64;99017.41;10318607;28;20479;-59
2021/12/02 17:03:05;;;;;;;4.60;3.08;;;;;;;5.48;66.53;99022.59;10321600;28;20053;-58
2021/12/02 17:08:07;;;;;;;4.00;2.88;;;;;;;5.53;66.94;99024.03;10323326;28;20183;-57
2021/12/02 17:13:09;;;;;;;6.20;4.22;;;;;;;5.55;66.92;99033.50;10318666;28;20060;-58
2021/12/02 17:18:11;;;;;;;8.38;4.32;;;;;;;5.51;66.00;99037.34;10319461;28;20104;-58
2021/12/02 17:23:14;;;;;;;7.05;4.53;;;;;;;5.49;67.53;99055.94;10319012;28;20068;-58
2021/12/02 17:28:16;;;;;;;6.68;3.83;;;;;;;5.60;66.73;99067.44;10321064;28;20525;-59
2021/12/02 17:33:18;;;;;;;6.03;4.55;;;;;;;5.63;67.09;99077.75;10319994;28;20062;-59
2021/12/02 17:38:22;;;;;;;6.95;4.43;;;;;;;5.62;67.34;99090.13;10323370;28;20128;-59
2021/12/02 17:43:25;;;;;;;5.20;3.70;;;;;;;5.41;67.47;99079.44;10322896;28;20847;-60
2021/12/02 17:48:27;;;;;;;5.07;3.67;;;;;;;5.58;66.84;99095.78;10321596;28;20144;-59
2021/12/02 17:53:34;;;;;;;4.22;3.67;;;;;;;5.45;65.38;99093.22;10320082;28;20088;-59
2021/12/02 17:58:38;;;;;;;4.85;4.18;;;;;;;5.29;67.06;99096.25;10315684;28;20201;-59
2021/12/02 18:03:39;;;;;;;6.45;4.85;;;;;;;5.23;66.62;99097.53;10295711;28;20136;-58
2021/12/02 18:08:42;;;;;;;6.82;4.53;;;;;;;5.36;66.10;99107.16;10302151;28;20089;-58
2021/12/02 18:13:43;;;;;;;5.80;5.28;;;;;;;5.45;66.73;99122.25;10316927;28;20272;-59
2021/12/02 18:18:45;;;;;;;8.00;6.38;;;;;;;5.55;66.26;99128.53;10305457;28;20054;-59
2021/12/02 18:23:48;;;;;;;5.88;4.95;;;;;;;5.55;66.95;99133.78;10312225;28;21196;-59
2021/12/02 18:28:50;;;;;;;6.85;5.50;;;;;;;5.42;66.64;99143.63;10322417;28;20410;-60
2021/12/02 18:33:51;;;;;;;6.45;5.47;;;;;;;5.63;66.99;99163.09;10316831;28;20058;-60
2021/12/02 18:38:53;;;;;;;5.45;4.93;;;;;;;5.63;66.11;99157.81;10321286;28;20050;-59
2021/12/02 18:43:57;;;;;;;7.88;5.55;;;;;;;5.61;66.03;99170.28;10320316;28;20057;-59
2021/12/02 18:48:59;;;;;;;7.27;5.50;;;;;;;5.66;66.15;99173.41;10314698;28;20083;-59
2021/12/02 18:54:02;;;;;;;7.93;7.05;;;;;;;5.69;66.86;99166.22;10323003;28;24023;-56
2021/12/02 18:59:04;;;;;;;9.38;6.05;;;;;;;5.72;66.85;99177.41;10318753;28;20042;-58
2021/12/02 19:04:07;;;;;;;6.53;5.70;;;;;;;5.53;66.54;99193.81;10315223;28;20137;-59
2021/12/02 19:30:29;;;;;;;8.35;7.55;;;;;;;5.39;67.35;99233.59;10321168;28;20053;-59
2021/12/02 19:35:31;;;;;;;7.93;7.20;;;;;;;5.25;67.21;99237.28;10316528;28;20057;-64
2021/12/02 19:40:35;;;;;;;9.60;8.60;;;;;;;5.25;67.77;99238.09;10327293;28;20363;-58
2021/12/02 19:45:36;;;;;;;8.25;7.20;;;;;;;5.34;67.51;99236.56;10327209;28;20256;-59
2021/12/02 19:50:38;;;;;;;13.60;12.00;;;;;;;5.37;68.26;99246.91;10334018;28;20128;-59
2021/12/02 19:55:40;;;;;;;10.70;9.05;;;;;;;5.30;67.75;99253.63;10333457;28;21139;-60
2021/12/02 20:00:41;;;;;;;9.63;8.63;;;;;;;5.39;67.93;99265.25;10332998;28;20324;-63
2021/12/02 20:05:43;;;;;;;8.23;7.43;;;;;;;5.25;67.49;99279.50;10346519;28;20505;-60
2021/12/02 20:10:49;;;;;;;8.57;7.40;;;;;;;5.12;68.04;99283.03;10324583;28;20176;-60
2021/12/02 20:15:58;;;;;;;9.45;7.57;;;;;;;5.12;68.36;99298.03;10321607;28;20475;-60
2021/12/02 20:21:00;;;;;;;9.05;7.30;;;;;;;4.98;68.97;99314.84;10301327;28;20042;-59
2021/12/02 20:26:03;;;;;;;6.90;6.28;;;;;;;5.05;69.75;99328.44;10310865;28;20271;-60
2021/12/02 20:31:06;;;;;;;7.05;5.88;;;;;;;4.81;69.74;99336.31;10322414;28;20124;-59
2021/12/02 20:36:08;;;;;;;6.30;5.70;;;;;;;4.93;70.01;99340.72;10327300;28;20057;-60
2021/12/02 20:41:09;;;;;;;5.72;5.15;;;;;;;5.08;69.31;99336.13;10322836;28;20077;-60
2021/12/02 20:46:12;;;;;;;6.28;4.78;;;;;;;5.14;68.94;99357.63;10327533;28;20173;-61
2021/12/02 20:51:15;;;;;;;5.35;4.82;;;;;;;5.26;68.61;99366.44;10324103;28;20046;-60
2021/12/02 20:56:20;;;;;;;4.97;4.40;;;;;;;5.23;68.12;99371.13;10325432;28;20050;-61
2021/12/02 21:01:22;;;;;;;4.57;4.18;;;;;;;5.18;68.09;99374.09;10325749;28;20111;-60
2021/12/02 21:06:25;;;;;;;4.68;4.28;;;;;;;5.15;67.70;99374.31;10324470;28;20053;-60
2021/12/02 21:11:31;;;;;;;5.07;4.53;;;;;;;5.21;66.92;99389.69;10318695;28;20192;-60
2021/12/02 21:16:34;;;;;;;4.93;4.15;;;;;;;5.22;66.87;99390.53;10324152;28;20049;-59
2021/12/02 21:21:36;;;;;;;5.05;4.55;;;;;;;5.06;66.83;99396.06;10320509;28;20054;-59
2021/12/02 21:26:37;;;;;;;5.40;4.13;;;;;;;4.77;67.64;99393.69;10324845;28;20136;-60
2021/12/02 21:31:39;;;;;;;4.30;3.90;;;;;;;4.75;68.40;99411.41;10322203;28;20067;-60
2021/12/02 21:36:42;;;;;;;3.92;3.50;;;;;;;4.31;69.01;99415.31;10326830;28;20231;-59
2021/12/02 21:41:44;;;;;;;4.63;4.00;;;;;;;4.70;68.87;99419.66;10324400;28;20117;-60
2021/12/02 21:46:47;;;;;;;5.55;4.32;;;;;;;4.88;66.67;99429.84;10327425;28;20501;-60
2021/12/02 21:51:53;;;;;;;4.20;3.80;;;;;;;4.93;66.32;99443.56;10324181;28;20426;-60
2021/12/02 21:56:56;;;;;;;3.55;3.22;;;;;;;5.03;67.35;99449.03;10321720;28;21169;-58
2021/12/02 22:01:59;;;;;;;3.25;2.95;;;;;;;4.84;66.92;99452.97;10322895;28;20511;-60
2021/12/02 22:07:01;;;;;;;3.25;2.75;;;;;;;4.39;68.84;99465.72;10321300;28;21321;-59
2021/12/02 22:12:04;;;;;;;4.25;3.70;;;;;;;4.72;69.32;99467.84;10310970;28;20156;-59
2021/12/02 22:17:05;;;;;;;3.83;3.47;;;;;;;4.74;68.22;99480.91;10353320;22;20065;-57
2021/12/02 22:22:08;;;;;;;4.10;3.58;;;;;;;4.70;67.09;99495.25;10331865;28;20425;-58
2021/12/02 22:27:09;;;;;;;4.00;3.55;;;;;;;4.81;67.77;99476.06;10317651;28;20147;-58
2021/12/02 22:32:11;;;;;;;4.00;3.63;;;;;;;4.86;68.02;99474.78;10320443;28;20565;-58
2021/12/02 22:37:27;;;;;;;4.53;3.92;;;;;;;4.94;67.33;99501.50;10318421;28;20716;-58
2021/12/02 22:42:29;;;;;;;3.58;3.28;;;;;;;4.89;65.90;99495.66;10318011;28;20523;-57
2021/12/02 22:47:30;;;;;;;5.75;5.32;;;;;;;4.86;66.66;99506.44;10318894;28;20239;-58
2021/12/02 22:52:33;;;;;;;3.97;3.47;;;;;;;4.80;65.62;99522.69;10317307;28;20558;-58
2021/12/02 22:57:34;;;;;;;3.33;3.03;;;;;;;4.77;67.32;99518.47;10318545;28;20568;-58
2021/12/02 23:02:36;;;;;;;3.88;3.55;;;;;;;4.87;66.65;99521.31;10317635;28;20542;-58
2021/12/02 23:07:38;;;;;;;4.55;4.20;;;;;;;4.69;66.17;99515.50;10316988;28;20048;-57
2021/12/02 23:12:41;;;;;;;4.00;3.60;;;;;;;4.46;67.82;99519.69;10317314;28;20133;-57
2021/12/02 23:17:42;;;;;;;4.05;3.65;;;;;;;4.59;66.22;99540.78;10322410;28;20589;-57
2021/12/02 23:22:44;;;;;;;3.75;3.45;;;;;;;4.45;66.83;99541.72;10322233;28;20057;-57
2021/12/02 23:33:12;;;;;;;3.97;3.67;;;;;;;3.91;68.95;99570.72;10324035;28;20113;-57
2021/12/02 23:38:13;;;;;;;;;;;;;;;3.87;67.71;99591.97;10319327;28;20081;-58
2021/12/02 23:43:15;;;;;;;3.95;3.65;;;;;;;3.59;68.34;99606.03;10319012;28;20412;-58
2021/12/02 23:48:17;;;;;;;3.58;3.28;;;;;;;3.74;68.64;99591.06;10321112;28;20114;-57
2021/12/02 23:53:20;;;;;;;4.60;4.15;;;;;;;4.09;67.17;99611.69;10319782;28;20360;-57
2021/12/02 23:58:21;;;;;;;4.68;4.03;;;;;;;4.20;67.72;99625.03;10318331;28;20397;-58
